sensor_id;sensor_type;location;lat;lon;timestamp;pressure;altitude;pressure_sealevel;temperature;humidity
72612;BME280;60655;52.182;4.474;2023-07-29T00:01:34;100651.50;;;18.26;89.16
72612;BME280;60655;52.182;4.474;2023-07-29T00:03:36;100648.53;;;18.22;89.38
72612;BME280;60655;52.182;4.474;2023-07-29T00:05:37;100641.00;;;18.24;89.11
72612;BME280;60655;52.182;4.474;2023-07-29T00:07:38;100660.38;;;18.36;88.74
72612;BME280;60655;52.182;4.474;2023-07-29T00:09:39;100649.34;;;18.38;88.58
72612;BME280;60655;52.182;4.474;2023-07-29T00:11:40;100639.91;;;18.40;88.72
72612;BME280;60655;52.182;4.474;2023-07-29T00:13:41;100649.88;;;18.40;88.17
72612;BME280;60655;52.182;4.474;2023-07-29T00:15:42;100649.06;;;18.39;88.20
72612;BME280;60655;52.182;4.474;2023-07-29T00:17:43;100646.09;;;18.46;87.40
72612;BME280;60655;52.182;4.474;2023-07-29T00:19:44;100641.22;;;18.48;87.35
72612;BME280;60655;52.182;4.474;2023-07-29T00:21:46;100629.72;;;18.37;87.92
72612;BME280;60655;52.182;4.474;2023-07-29T00:23:47;100635.88;;;18.43;87.35
72612;BME280;60655;52.182;4.474;2023-07-29T00:25:48;100632.13;;;18.44;86.60
72612;BME280;60655;52.182;4.474;2023-07-29T00:27:49;100611.69;;;18.22;87.17
72612;BME280;60655;52.182;4.474;2023-07-29T00:29:50;100638.84;;;18.41;86.67
72612;BME280;60655;52.182;4.474;2023-07-29T00:31:51;100633.97;;;18.48;86.19
72612;BME280;60655;52.182;4.474;2023-07-29T00:33:52;100636.41;;;18.45;85.93
72612;BME280;60655;52.182;4.474;2023-07-29T00:35:53;100647.47;;;18.38;86.30
72612;BME280;60655;52.182;4.474;2023-07-29T00:37:54;100647.44;;;18.43;86.16
72612;BME280;60655;52.182;4.474;2023-07-29T00:39:55;100637.25;;;18.35;86.18
72612;BME280;60655;52.182;4.474;2023-07-29T00:41:56;100635.34;;;18.31;86.06
72612;BME280;60655;52.182;4.474;2023-07-29T00:43:57;100634.28;;;18.32;86.03
72612;BME280;60655;52.182;4.474;2023-07-29T00:45:59;100628.91;;;18.27;86.04
72612;BME280;60655;52.182;4.474;2023-07-29T00:48:01;100636.97;;;18.27;85.64
72612;BME280;60655;52.182;4.474;2023-07-29T00:50:03;100628.63;;;18.23;86.30
72612;BME280;60655;52.182;4.474;2023-07-29T00:52:04;100630.53;;;18.28;85.83
72612;BME280;60655;52.182;4.474;2023-07-29T00:54:05;100625.16;;;18.22;85.82
72612;BME280;60655;52.182;4.474;2023-07-29T00:56:06;100631.06;;;18.19;86.08
72612;BME280;60655;52.182;4.474;2023-07-29T00:58:07;100623.00;;;18.25;85.93
72612;BME280;60655;52.182;4.474;2023-07-29T01:00:09;100623.00;;;18.25;85.62
72612;BME280;60655;52.182;4.474;2023-07-29T01:02:10;100623.53;;;18.21;85.54
72612;BME280;60655;52.182;4.474;2023-07-29T01:04:11;100619.53;;;18.19;86.12
72612;BME280;60655;52.182;4.474;2023-07-29T01:06:23;100621.69;;;18.12;86.15
72612;BME280;60655;52.182;4.474;2023-07-29T01:08:38;100616.84;;;18.04;86.01
72612;BME280;60655;52.182;4.474;2023-07-29T01:10:54;100627.34;;;18.15;85.85
72612;BME280;60655;52.182;4.474;2023-07-29T01:17:30;100605.81;;;18.10;86.30
72612;BME280;60655;52.182;4.474;2023-07-29T01:21:51;100601.25;;;18.01;86.12
72612;BME280;60655;52.182;4.474;2023-07-29T01:23:52;100604.50;;;18.03;86.24
72612;BME280;60655;52.182;4.474;2023-07-29T01:25:54;100600.19;;;17.97;86.47
72612;BME280;60655;52.182;4.474;2023-07-29T01:27:55;100599.69;;;17.90;86.80
72612;BME280;60655;52.182;4.474;2023-07-29T01:29:57;100596.69;;;17.91;86.56
72612;BME280;60655;52.182;4.474;2023-07-29T01:32:10;100605.84;;;18.05;85.88
72612;BME280;60655;52.182;4.474;2023-07-29T01:34:26;100597.78;;;17.95;86.45
72612;BME280;60655;52.182;4.474;2023-07-29T01:36:32;100601.03;;;17.87;86.75
72612;BME280;60655;52.182;4.474;2023-07-29T01:38:40;100598.06;;;17.83;86.96
72612;BME280;60655;52.182;4.474;2023-07-29T01:40:42;100596.72;;;17.81;87.47
72612;BME280;60655;52.182;4.474;2023-07-29T01:42:44;100596.72;;;17.81;87.21
72612;BME280;60655;52.182;4.474;2023-07-29T01:44:46;100601.03;;;17.82;87.42
72612;BME280;60655;52.182;4.474;2023-07-29T01:46:47;100601.03;;;17.82;87.18
72612;BME280;60655;52.182;4.474;2023-07-29T01:48:50;100592.97;;;17.77;87.42
72612;BME280;60655;52.182;4.474;2023-07-29T01:50:51;100584.34;;;17.80;86.72
72612;BME280;60655;52.182;4.474;2023-07-29T01:52:52;100590.53;;;17.80;87.20
72612;BME280;60655;52.182;4.474;2023-07-29T01:54:53;100590.28;;;17.82;87.18
72612;BME280;60655;52.182;4.474;2023-07-29T01:56:54;100584.09;;;17.76;87.06
72612;BME280;60655;52.182;4.474;2023-07-29T01:58:55;100587.03;;;17.75;87.24
72612;BME280;60655;52.182;4.474;2023-07-29T02:00:56;100582.47;;;17.65;87.79
72612;BME280;60655;52.182;4.474;2023-07-29T02:02:57;100579.47;;;17.62;88.24
72612;BME280;60655;52.182;4.474;2023-07-29T02:04:58;100581.13;;;17.68;87.91
72612;BME280;60655;52.182;4.474;2023-07-29T02:06:59;100583.28;;;17.66;87.88
72612;BME280;60655;52.182;4.474;2023-07-29T02:09:00;100593.44;;;17.64;88.43
72612;BME280;60655;52.182;4.474;2023-07-29T02:11:01;100573.84;;;17.53;88.98
72612;BME280;60655;52.182;4.474;2023-07-29T02:13:03;100587.03;;;17.65;89.08
72612;BME280;60655;52.182;4.474;2023-07-29T02:15:05;100574.94;;;17.57;89.13
72612;BME280;60655;52.182;4.474;2023-07-29T02:17:06;100576.28;;;17.65;89.02
72612;BME280;60655;52.182;4.474;2023-07-29T02:19:07;100578.44;;;17.58;89.50
72612;BME280;60655;52.182;4.474;2023-07-29T02:21:07;100577.09;;;17.60;89.63
72612;BME280;60655;52.182;4.474;2023-07-29T02:23:08;100575.47;;;17.59;90.03
72612;BME280;60655;52.182;4.474;2023-07-29T02:25:10;100577.63;;;17.57;90.05
72612;BME280;60655;52.182;4.474;2023-07-29T02:27:11;100568.50;;;17.58;89.92
72612;BME280;60655;52.182;4.474;2023-07-29T02:29:12;100567.97;;;17.66;89.51
72612;BME280;60655;52.182;4.474;2023-07-29T02:31:19;100570.38;;;17.58;90.36
72612;BME280;60655;52.182;4.474;2023-07-29T02:33:21;100568.75;;;17.57;90.53
72612;BME280;60655;52.182;4.474;2023-07-29T02:35:22;100566.06;;;17.51;90.83
72612;BME280;60655;52.182;4.474;2023-07-29T02:37:23;100567.41;;;17.54;90.63
72612;BME280;60655;52.182;4.474;2023-07-29T02:39:23;100563.13;;;17.58;90.73
72612;BME280;60655;52.182;4.474;2023-07-29T02:41:24;100563.66;;;17.55;90.83
72612;BME280;60655;52.182;4.474;2023-07-29T02:43:25;100555.88;;;17.53;91.15
72612;BME280;60655;52.182;4.474;2023-07-29T02:45:26;100558.00;;;17.57;91.05
72612;BME280;60655;52.182;4.474;2023-07-29T02:47:27;100555.59;;;17.60;91.07
72612;BME280;60655;52.182;4.474;2023-07-29T02:49:28;100526.31;;;17.43;91.40
72612;BME280;60655;52.182;4.474;2023-07-29T02:51:30;100543.50;;;17.58;91.31
72612;BME280;60655;52.182;4.474;2023-07-29T02:53:31;100549.41;;;17.60;91.15
72612;BME280;60655;52.182;4.474;2023-07-29T02:55:32;100539.47;;;17.45;91.51
72612;BME280;60655;52.182;4.474;2023-07-29T02:57:33;100537.59;;;17.50;91.77
72612;BME280;60655;52.182;4.474;2023-07-29T02:59:34;100545.13;;;17.48;92.06
72612;BME280;60655;52.182;4.474;2023-07-29T03:01:35;100537.59;;;17.50;92.04
72612;BME280;60655;52.182;4.474;2023-07-29T03:03:36;100552.09;;;17.60;91.64
72612;BME280;60655;52.182;4.474;2023-07-29T03:05:37;100542.72;;;17.57;91.56
72612;BME280;60655;52.182;4.474;2023-07-29T03:07:38;100546.72;;;17.49;92.18
72612;BME280;60655;52.182;4.474;2023-07-29T03:09:39;100549.69;;;17.48;92.29
72612;BME280;60655;52.182;4.474;2023-07-29T03:11:42;100551.84;;;17.51;92.40
72612;BME280;60655;52.182;4.474;2023-07-29T03:13:43;100542.69;;;17.52;92.56
72612;BME280;60655;52.182;4.474;2023-07-29T03:15:44;100534.38;;;17.48;92.76
72612;BME280;60655;52.182;4.474;2023-07-29T03:17:45;100534.09;;;17.55;92.78
72612;BME280;60655;52.182;4.474;2023-07-29T03:19:46;100544.59;;;17.67;91.98
72612;BME280;60655;52.182;4.474;2023-07-29T03:21:47;100547.53;;;17.70;91.77
72612;BME280;60655;52.182;4.474;2023-07-29T03:23:48;100550.50;;;17.69;92.09
72612;BME280;60655;52.182;4.474;2023-07-29T03:25:49;100552.91;;;17.65;92.03
72612;BME280;60655;52.182;4.474;2023-07-29T03:27:52;100555.84;;;17.64;92.56
72612;BME280;60655;52.182;4.474;2023-07-29T03:29:52;100554.25;;;17.58;93.20
72612;BME280;60655;52.182;4.474;2023-07-29T03:31:53;100554.78;;;17.60;93.33
72612;BME280;60655;52.182;4.474;2023-07-29T03:33:55;100547.78;;;17.64;92.66
72612;BME280;60655;52.182;4.474;2023-07-29T03:35:56;100562.59;;;17.66;92.95
72612;BME280;60655;52.182;4.474;2023-07-29T03:37:57;100555.84;;;17.64;93.10
72612;BME280;60655;52.182;4.474;2023-07-29T03:39:58;100549.94;;;17.62;93.26
72612;BME280;60655;52.182;4.474;2023-07-29T03:41:59;100548.34;;;17.61;93.67
72612;BME280;60655;52.182;4.474;2023-07-29T03:44:00;100544.03;;;17.54;93.78
72612;BME280;60655;52.182;4.474;2023-07-29T03:46:01;100555.84;;;17.64;93.32
72612;BME280;60655;52.182;4.474;2023-07-29T03:48:03;100555.59;;;17.60;93.62
72612;BME280;60655;52.182;4.474;2023-07-29T03:50:05;100571.72;;;17.70;93.55
72612;BME280;60655;52.182;4.474;2023-07-29T03:52:06;100561.78;;;17.71;93.37
72612;BME280;60655;52.182;4.474;2023-07-29T03:54:07;100553.72;;;17.66;93.29
72612;BME280;60655;52.182;4.474;2023-07-29T03:56:08;100573.88;;;17.73;93.71
72612;BME280;60655;52.182;4.474;2023-07-29T03:58:09;100563.94;;;17.79;93.54
72612;BME280;60655;52.182;4.474;2023-07-29T04:00:10;100557.50;;;17.70;94.03
72612;BME280;60655;52.182;4.474;2023-07-29T04:02:11;100553.72;;;17.76;94.08
72612;BME280;60655;52.182;4.474;2023-07-29T04:04:12;100552.66;;;17.72;94.15
72612;BME280;60655;52.182;4.474;2023-07-29T04:06:13;100558.56;;;17.74;94.19
72612;BME280;60655;52.182;4.474;2023-07-29T04:08:14;100552.38;;;17.73;94.33
72612;BME280;60655;52.182;4.474;2023-07-29T04:10:15;100563.66;;;17.85;93.72
72612;BME280;60655;52.182;4.474;2023-07-29T04:12:16;100558.84;;;17.87;93.69
72612;BME280;60655;52.182;4.474;2023-07-29T04:14:17;100559.91;;;17.76;94.10
72612;BME280;60655;52.182;4.474;2023-07-29T04:16:18;100555.34;;;17.72;95.02
72612;BME280;60655;52.182;4.474;2023-07-29T04:18:19;100542.44;;;17.69;95.05
72612;BME280;60655;52.182;4.474;2023-07-29T04:20:20;100547.81;;;17.79;94.90
72612;BME280;60655;52.182;4.474;2023-07-29T04:22:21;100545.13;;;17.79;94.88
72612;BME280;60655;52.182;4.474;2023-07-29T04:24:22;100558.84;;;17.82;94.84
72612;BME280;60655;52.182;4.474;2023-07-29T04:26:24;100547.00;;;17.83;94.44
72612;BME280;60655;52.182;4.474;2023-07-29T04:28:24;100543.25;;;17.84;94.47
72612;BME280;60655;52.182;4.474;2023-07-29T04:30:25;100557.19;;;17.92;94.50
72612;BME280;60655;52.182;4.474;2023-07-29T04:32:26;100562.06;;;17.90;95.14
72612;BME280;60655;52.182;4.474;2023-07-29T04:34:27;100555.56;;;17.91;95.08
72612;BME280;60655;52.182;4.474;2023-07-29T04:36:28;100562.03;;;18.00;94.87
72612;BME280;60655;52.182;4.474;2023-07-29T04:38:33;100571.97;;;17.99;95.09
72612;BME280;60655;52.182;4.474;2023-07-29T04:40:34;100572.75;;;18.05;95.00
72612;BME280;60655;52.182;4.474;2023-07-29T04:42:36;100570.88;;;18.00;95.59
72612;BME280;60655;52.182;4.474;2023-07-29T04:44:37;100575.19;;;18.01;95.60
72612;BME280;60655;52.182;4.474;2023-07-29T04:46:38;100566.59;;;18.04;95.38
72612;BME280;60655;52.182;4.474;2023-07-29T04:48:39;100566.56;;;18.14;94.99
72612;BME280;60655;52.182;4.474;2023-07-29T04:50:40;100570.34;;;18.18;94.84
72612;BME280;60655;52.182;4.474;2023-07-29T04:52:42;100552.88;;;18.11;94.54
72612;BME280;60655;52.182;4.474;2023-07-29T04:54:43;100575.13;;;18.21;94.73
72612;BME280;60655;52.182;4.474;2023-07-29T04:56:44;100564.66;;;18.25;93.72
72612;BME280;60655;52.182;4.474;2023-07-29T04:58:45;100569.22;;;18.25;93.52
72612;BME280;60655;52.182;4.474;2023-07-29T05:00:47;100571.91;;;18.30;93.82
72612;BME280;60655;52.182;4.474;2023-07-29T05:02:47;100574.03;;;18.33;93.34
72612;BME280;60655;52.182;4.474;2023-07-29T05:04:49;100567.88;;;18.27;93.44
72612;BME280;60655;52.182;4.474;2023-07-29T05:06:49;100565.97;;;18.28;93.31
72612;BME280;60655;52.182;4.474;2023-07-29T05:08:51;100577.53;;;18.38;92.97
72612;BME280;60655;52.182;4.474;2023-07-29T05:10:52;100578.34;;;18.39;93.31
72612;BME280;60655;52.182;4.474;2023-07-29T05:12:54;100564.06;;;18.38;93.48
72612;BME280;60655;52.182;4.474;2023-07-29T05:14:55;100570.00;;;18.40;93.17
72612;BME280;60655;52.182;4.474;2023-07-29T05:16:56;100565.41;;;18.46;93.15
72612;BME280;60655;52.182;4.474;2023-07-29T05:18:57;100564.63;;;18.40;93.42
72612;BME280;60655;52.182;4.474;2023-07-29T05:20:58;100546.31;;;18.42;93.10
72612;BME280;60655;52.182;4.474;2023-07-29T05:22:59;100559.72;;;18.52;92.92
72612;BME280;60655;52.182;4.474;2023-07-29T05:25:01;100563.19;;;18.53;92.09
72612;BME280;60655;52.182;4.474;2023-07-29T05:27:02;100551.38;;;18.49;92.40
72612;BME280;60655;52.182;4.474;2023-07-29T05:29:03;100552.44;;;18.58;91.67
72612;BME280;60655;52.182;4.474;2023-07-29T05:31:04;100546.81;;;18.60;91.99
72612;BME280;60655;52.182;4.474;2023-07-29T05:33:06;100551.09;;;18.61;92.25
72612;BME280;60655;52.182;4.474;2023-07-29T05:35:09;100565.06;;;18.68;91.89
72612;BME280;60655;52.182;4.474;2023-07-29T05:37:10;100543.28;;;18.59;92.16
72612;BME280;60655;52.182;4.474;2023-07-29T05:39:11;100555.38;;;18.67;92.11
72612;BME280;60655;52.182;4.474;2023-07-29T05:41:12;100561.81;;;18.71;92.01
72612;BME280;60655;52.182;4.474;2023-07-29T05:43:13;100554.03;;;18.69;91.98
72612;BME280;60655;52.182;4.474;2023-07-29T05:45:15;100558.59;;;18.74;91.70
72612;BME280;60655;52.182;4.474;2023-07-29T05:47:16;100562.88;;;18.75;91.60
72612;BME280;60655;52.182;4.474;2023-07-29T05:49:17;100559.66;;;18.73;91.12
72612;BME280;60655;52.182;4.474;2023-07-29T05:51:18;100550.81;;;18.67;91.66
72612;BME280;60655;52.182;4.474;2023-07-29T05:53:19;100547.31;;;18.67;91.11
72612;BME280;60655;52.182;4.474;2023-07-29T05:55:20;100559.38;;;18.74;90.85
72612;BME280;60655;52.182;4.474;2023-07-29T05:57:21;100557.28;;;18.66;91.11
72612;BME280;60655;52.182;4.474;2023-07-29T05:59:22;100565.06;;;18.68;91.49
72612;BME280;60655;52.182;4.474;2023-07-29T06:01:23;100575.25;;;18.76;91.24
72612;BME280;60655;52.182;4.474;2023-07-29T06:03:24;100566.41;;;18.70;91.27
72612;BME280;60655;52.182;4.474;2023-07-29T06:05:25;100571.25;;;18.68;91.28
72612;BME280;60655;52.182;4.474;2023-07-29T06:07:26;100569.66;;;18.67;90.96
72612;BME280;60655;52.182;4.474;2023-07-29T06:09:30;100571.78;;;18.70;91.18
72612;BME280;60655;52.182;4.474;2023-07-29T06:11:31;100565.88;;;18.63;91.32
72612;BME280;60655;52.182;4.474;2023-07-29T06:13:32;100572.06;;;18.69;91.44
72612;BME280;60655;52.182;4.474;2023-07-29T06:15:33;100569.56;;;18.77;91.25
72612;BME280;60655;52.182;4.474;2023-07-29T06:17:34;100567.19;;;18.76;91.13
72612;BME280;60655;52.182;4.474;2023-07-29T06:19:35;100574.16;;;18.77;91.47
72612;BME280;60655;52.182;4.474;2023-07-29T06:21:36;100575.00;;;18.72;91.61
72612;BME280;60655;52.182;4.474;2023-07-29T06:23:37;100576.34;;;18.75;91.58
72612;BME280;60655;52.182;4.474;2023-07-29T06:25:38;100584.91;;;18.77;92.01
72612;BME280;60655;52.182;4.474;2023-07-29T06:27:39;100579.84;;;18.75;92.03
72612;BME280;60655;52.182;4.474;2023-07-29T06:29:40;100581.72;;;18.75;91.96
72612;BME280;60655;52.182;4.474;2023-07-29T06:31:41;100581.13;;;18.83;92.29
72612;BME280;60655;52.182;4.474;2023-07-29T06:33:42;100577.91;;;18.81;92.46
72612;BME280;60655;52.182;4.474;2023-07-29T06:35:43;100584.34;;;18.85;91.95
72612;BME280;60655;52.182;4.474;2023-07-29T06:37:44;100587.28;;;18.88;91.57
72612;BME280;60655;52.182;4.474;2023-07-29T06:39:45;100586.75;;;18.92;91.93
72612;BME280;60655;52.182;4.474;2023-07-29T06:41:46;100561.75;;;18.81;91.41
72612;BME280;60655;52.182;4.474;2023-07-29T06:43:47;100581.88;;;18.94;92.04
72612;BME280;60655;52.182;4.474;2023-07-29T06:45:48;100576.81;;;18.87;92.37
72612;BME280;60655;52.182;4.474;2023-07-29T06:47:49;100579.72;;;19.01;92.32
72612;BME280;60655;52.182;4.474;2023-07-29T06:49:49;100573.78;;;18.99;93.24
72612;BME280;60655;52.182;4.474;2023-07-29T06:51:50;100577.56;;;18.98;93.32
72612;BME280;60655;52.182;4.474;2023-07-29T06:53:51;100578.13;;;18.95;94.75
72612;BME280;60655;52.182;4.474;2023-07-29T06:55:53;100562.00;;;18.84;94.78
72612;BME280;60655;52.182;4.474;2023-07-29T06:57:54;100578.88;;;19.05;95.44
72612;BME280;60655;52.182;4.474;2023-07-29T06:59:55;100579.91;;;19.09;95.64
72612;BME280;60655;52.182;4.474;2023-07-29T07:01:55;100562.78;;;18.95;95.21
72612;BME280;60655;52.182;4.474;2023-07-29T07:03:56;100571.41;;;18.92;95.73
72612;BME280;60655;52.182;4.474;2023-07-29T07:05:59;100578.66;;;18.92;95.64
72612;BME280;60655;52.182;4.474;2023-07-29T07:08:00;100586.72;;;18.97;95.05
72612;BME280;60655;52.182;4.474;2023-07-29T07:10:01;100571.69;;;18.85;93.99
72612;BME280;60655;52.182;4.474;2023-07-29T07:12:02;100585.13;;;18.91;92.06
72612;BME280;60655;52.182;4.474;2023-07-29T07:14:03;100582.16;;;18.97;90.71
72612;BME280;60655;52.182;4.474;2023-07-29T07:16:04;100580.94;;;19.18;90.16
72612;BME280;60655;52.182;4.474;2023-07-29T07:18:05;100584.38;;;19.29;88.01
72612;BME280;60655;52.182;4.474;2023-07-29T07:20:06;100573.56;;;19.34;86.21
72612;BME280;60655;52.182;4.474;2023-07-29T07:22:07;100585.63;;;19.42;84.59
72612;BME280;60655;52.182;4.474;2023-07-29T07:24:09;100588.00;;;19.53;86.65
72612;BME280;60655;52.182;4.474;2023-07-29T07:26:09;100590.13;;;19.57;84.50
72612;BME280;60655;52.182;4.474;2023-07-29T07:28:10;100575.28;;;19.59;84.87
72612;BME280;60655;52.182;4.474;2023-07-29T07:30:11;100579.81;;;19.64;84.19
72612;BME280;60655;52.182;4.474;2023-07-29T07:32:12;100577.78;;;19.50;82.86
72612;BME280;60655;52.182;4.474;2023-07-29T07:34:13;100590.19;;;19.41;82.53
72612;BME280;60655;52.182;4.474;2023-07-29T07:36:14;100597.81;;;19.34;83.55
72612;BME280;60655;52.182;4.474;2023-07-29T07:38:16;100601.66;;;19.18;83.17
72612;BME280;60655;52.182;4.474;2023-07-29T07:40:17;100593.63;;;19.08;83.79
72612;BME280;60655;52.182;4.474;2023-07-29T07:42:18;100598.81;;;18.99;84.44
72612;BME280;60655;52.182;4.474;2023-07-29T07:44:20;100599.09;;;18.98;84.44
72612;BME280;60655;52.182;4.474;2023-07-29T07:46:21;100613.63;;;19.02;84.99
72612;BME280;60655;52.182;4.474;2023-07-29T07:48:22;100610.94;;;19.02;85.23
72612;BME280;60655;52.182;4.474;2023-07-29T07:50:23;100605.00;;;19.05;86.04
72612;BME280;60655;52.182;4.474;2023-07-29T07:52:24;100609.34;;;18.96;86.84
72612;BME280;60655;52.182;4.474;2023-07-29T07:54:25;100606.91;;;18.99;86.89
72612;BME280;60655;52.182;4.474;2023-07-29T07:56:26;100602.31;;;19.05;87.38
72612;BME280;60655;52.182;4.474;2023-07-29T07:58:27;100605.44;;;19.17;86.84
72612;BME280;60655;52.182;4.474;2023-07-29T08:00:28;100597.38;;;19.12;86.64
72612;BME280;60655;52.182;4.474;2023-07-29T08:02:29;100599.50;;;19.20;86.53
72612;BME280;60655;52.182;4.474;2023-07-29T08:04:30;100618.06;;;19.21;86.59
72612;BME280;60655;52.182;4.474;2023-07-29T08:06:32;100613.81;;;19.10;85.88
72612;BME280;60655;52.182;4.474;2023-07-29T08:08:33;100624.88;;;19.09;85.27
72612;BME280;60655;52.182;4.474;2023-07-29T08:10:34;100621.06;;;19.15;86.58
72612;BME280;60655;52.182;4.474;2023-07-29T08:12:35;100624.81;;;19.24;86.59
72612;BME280;60655;52.182;4.474;2023-07-29T08:14:36;100621.56;;;19.22;85.10
72612;BME280;60655;52.182;4.474;2023-07-29T08:16:37;100621.56;;;19.27;86.81
72612;BME280;60655;52.182;4.474;2023-07-29T08:18:37;100619.38;;;19.34;86.19
72612;BME280;60655;52.182;4.474;2023-07-29T08:20:38;100626.84;;;19.37;84.75
72612;BME280;60655;52.182;4.474;2023-07-29T08:22:39;100625.53;;;19.35;84.37
72612;BME280;60655;52.182;4.474;2023-07-29T08:24:40;100622.59;;;19.31;83.90
72612;BME280;60655;52.182;4.474;2023-07-29T08:26:41;100629.53;;;19.42;84.84
72612;BME280;60655;52.182;4.474;2023-07-29T08:28:42;100630.03;;;19.49;84.72
72612;BME280;60655;52.182;4.474;2023-07-29T08:30:43;100622.81;;;19.40;82.52
72612;BME280;60655;52.182;4.474;2023-07-29T08:32:44;100627.06;;;19.51;81.67
72612;BME280;60655;52.182;4.474;2023-07-29T08:34:45;100625.72;;;19.53;81.60
72612;BME280;60655;52.182;4.474;2023-07-29T08:36:46;100632.13;;;19.63;82.04
72612;BME280;60655;52.182;4.474;2023-07-29T08:38:47;100634.22;;;19.66;82.38
72612;BME280;60655;52.182;4.474;2023-07-29T08:41:05;100626.72;;;19.63;83.09
72612;BME280;60655;52.182;4.474;2023-07-29T08:43:08;100619.56;;;19.82;83.35
72612;BME280;60655;52.182;4.474;2023-07-29T08:45:11;100625.91;;;19.96;81.16
72612;BME280;60655;52.182;4.474;2023-07-29T08:47:12;100620.50;;;19.96;80.47
72612;BME280;60655;52.182;4.474;2023-07-29T08:49:18;100625.25;;;20.09;80.02
72612;BME280;60655;52.182;4.474;2023-07-29T08:51:24;100622.75;;;20.18;78.69
72612;BME280;60655;52.182;4.474;2023-07-29T08:53:26;100627.38;;;20.41;78.63
72612;BME280;60655;52.182;4.474;2023-07-29T08:55:28;100635.66;;;20.50;78.31
72612;BME280;60655;52.182;4.474;2023-07-29T08:57:30;100637.66;;;20.39;78.38
72612;BME280;60655;52.182;4.474;2023-07-29T08:59:32;100639.84;;;20.37;79.08
72612;BME280;60655;52.182;4.474;2023-07-29T09:01:33;100638.81;;;20.28;80.07
72612;BME280;60655;52.182;4.474;2023-07-29T09:03:35;100644.50;;;20.27;79.25
72612;BME280;60655;52.182;4.474;2023-07-29T09:05:36;100637.06;;;20.13;79.24
72612;BME280;60655;52.182;4.474;2023-07-29T09:07:38;100641.91;;;20.16;79.16
72612;BME280;60655;52.182;4.474;2023-07-29T09:09:39;100639.09;;;20.27;79.52
72612;BME280;60655;52.182;4.474;2023-07-29T09:11:40;100640.06;;;20.41;80.00
72612;BME280;60655;52.182;4.474;2023-07-29T09:13:41;100631.94;;;20.46;78.95
72612;BME280;60655;52.182;4.474;2023-07-29T09:15:42;100645.94;;;20.48;78.24
72612;BME280;60655;52.182;4.474;2023-07-29T09:17:43;100629.16;;;20.22;77.78
72612;BME280;60655;52.182;4.474;2023-07-29T09:19:48;100626.06;;;20.10;78.91
72612;BME280;60655;52.182;4.474;2023-07-29T09:21:49;100628.44;;;20.16;79.62
72612;BME280;60655;52.182;4.474;2023-07-29T09:23:50;100636.44;;;20.21;79.78
72612;BME280;60655;52.182;4.474;2023-07-29T09:26:00;100613.41;;;20.05;79.67
72612;BME280;60655;52.182;4.474;2023-07-29T09:28:08;100628.47;;;20.11;80.05
72612;BME280;60655;52.182;4.474;2023-07-29T09:30:18;100641.94;;;20.11;80.81
72612;BME280;60655;52.182;4.474;2023-07-29T09:32:24;100638.50;;;20.06;82.60
72612;BME280;60655;52.182;4.474;2023-07-29T09:34:25;100634.50;;;19.98;82.21
72612;BME280;60655;52.182;4.474;2023-07-29T09:36:31;100639.94;;;19.93;81.85
72612;BME280;60655;52.182;4.474;2023-07-29T09:38:34;100657.16;;;19.97;82.85
72612;BME280;60655;52.182;4.474;2023-07-29T09:40:40;100630.94;;;19.74;82.44
72612;BME280;60655;52.182;4.474;2023-07-29T09:42:47;100621.03;;;19.64;83.04
72612;BME280;60655;52.182;4.474;2023-07-29T09:44:50;100645.72;;;19.81;83.99
72612;BME280;60655;52.182;4.474;2023-07-29T09:46:53;100624.22;;;19.71;84.28
72612;BME280;60655;52.182;4.474;2023-07-29T09:48:56;100639.47;;;19.86;82.35
72612;BME280;60655;52.182;4.474;2023-07-29T09:50:57;100629.22;;;19.88;81.76
72612;BME280;60655;52.182;4.474;2023-07-29T09:52:58;100636.50;;;19.87;81.31
72612;BME280;60655;52.182;4.474;2023-07-29T09:54:59;100636.53;;;19.82;81.41
72612;BME280;60655;52.182;4.474;2023-07-29T09:57:00;100630.13;;;19.73;83.10
72612;BME280;60655;52.182;4.474;2023-07-29T09:59:01;100637.66;;;19.76;82.61
72612;BME280;60655;52.182;4.474;2023-07-29T10:01:08;100627.44;;;19.73;83.77
72612;BME280;60655;52.182;4.474;2023-07-29T10:03:09;100634.69;;;19.78;83.40
72612;BME280;60655;52.182;4.474;2023-07-29T10:05:10;100640.88;;;19.78;83.42
72612;BME280;60655;52.182;4.474;2023-07-29T10:07:12;100646.03;;;19.75;83.65
72612;BME280;60655;52.182;4.474;2023-07-29T10:09:13;100643.94;;;19.67;84.50
72612;BME280;60655;52.182;4.474;2023-07-29T10:11:14;100633.16;;;19.67;85.93
72612;BME280;60655;52.182;4.474;2023-07-29T10:13:16;100641.84;;;19.59;86.44
72612;BME280;60655;52.182;4.474;2023-07-29T10:15:17;100653.91;;;19.66;86.90
72612;BME280;60655;52.182;4.474;2023-07-29T10:17:19;100648.75;;;19.70;86.25
72612;BME280;60655;52.182;4.474;2023-07-29T10:19:22;100653.31;;;19.74;87.48
72612;BME280;60655;52.182;4.474;2023-07-29T10:21:24;100653.59;;;19.73;86.28
72612;BME280;60655;52.182;4.474;2023-07-29T10:23:26;100654.13;;;19.75;85.48
72612;BME280;60655;52.182;4.474;2023-07-29T10:25:39;100651.66;;;19.78;85.15
72612;BME280;60655;52.182;4.474;2023-07-29T10:27:55;100661.06;;;19.86;85.01
72612;BME280;60655;52.182;4.474;2023-07-29T10:29:56;100663.13;;;19.94;86.14
72612;BME280;60655;52.182;4.474;2023-07-29T10:32:01;100658.75;;;20.03;85.35
72612;BME280;60655;52.182;4.474;2023-07-29T10:34:03;100594.81;;;19.75;84.50
72612;BME280;60655;52.182;4.474;2023-07-29T10:36:05;100641.50;;;19.99;83.54
72612;BME280;60655;52.182;4.474;2023-07-29T10:38:06;100639.53;;;20.10;82.62
72612;BME280;60655;52.182;4.474;2023-07-29T10:40:09;100653.66;;;20.26;81.80
72612;BME280;60655;52.182;4.474;2023-07-29T10:42:10;100661.72;;;20.31;82.31
72612;BME280;60655;52.182;4.474;2023-07-29T10:46:40;100649.31;;;20.30;81.68